createdAt,value
2018-12-07T00:01:09.661Z,5.37
2018-12-07T00:04:13.991Z,5.33
2018-12-07T00:07:17.267Z,5.00
2018-12-07T00:10:20.587Z,4.80
2018-12-07T00:13:23.750Z,5.10
2018-12-07T00:16:26.890Z,4.93
2018-12-07T00:19:30.110Z,4.77
2018-12-07T00:22:33.206Z,4.93
2018-12-07T00:25:36.400Z,5.00
2018-12-07T00:28:39.619Z,4.50
2018-12-07T00:31:42.749Z,4.60
2018-12-07T00:34:45.996Z,4.30
2018-12-07T00:37:49.079Z,4.40
2018-12-07T00:40:52.278Z,4.60
2018-12-07T00:43:55.484Z,4.37
2018-12-07T00:46:58.691Z,5.00
2018-12-07T00:50:01.914Z,3.90
2018-12-07T00:53:05.006Z,4.27
2018-12-07T00:56:08.151Z,3.97
2018-12-07T00:59:11.305Z,4.33
2018-12-07T01:02:14.482Z,4.07
2018-12-07T01:05:17.700Z,3.87
2018-12-07T01:08:20.844Z,3.50
2018-12-07T01:11:23.972Z,3.70
2018-12-07T01:14:27.067Z,3.50
2018-12-07T01:17:30.222Z,3.70
2018-12-07T01:20:33.409Z,3.63
2018-12-07T01:23:36.520Z,3.63
2018-12-07T01:26:39.800Z,3.50
2018-12-07T01:29:43.923Z,3.37
2018-12-07T01:32:47.096Z,3.57
2018-12-07T01:35:50.176Z,3.30
2018-12-07T01:38:53.328Z,3.20
2018-12-07T01:41:56.438Z,3.27
2018-12-07T01:44:59.658Z,2.90
2018-12-07T01:48:02.870Z,3.30
2018-12-07T01:51:05.987Z,2.93
2018-12-07T01:54:09.106Z,2.97
2018-12-07T01:57:12.243Z,2.70
2018-12-07T02:00:15.409Z,2.80
2018-12-07T02:03:18.533Z,2.60
2018-12-07T02:06:21.728Z,2.87
2018-12-07T02:09:25.010Z,2.70
2018-12-07T02:12:28.382Z,2.67
2018-12-07T02:15:33.563Z,2.90
2018-12-07T02:18:37.785Z,2.77
2018-12-07T02:21:42.969Z,2.70
2018-12-07T02:24:48.941Z,2.50
2018-12-07T02:28:00.131Z,2.43
2018-12-07T02:31:03.465Z,2.60
2018-12-07T02:34:06.644Z,2.57
2018-12-07T02:37:09.884Z,2.60
2018-12-07T02:40:13.157Z,2.70
2018-12-07T02:43:16.283Z,2.53
2018-12-07T02:46:19.368Z,2.20
2018-12-07T02:49:22.552Z,2.27
2018-12-07T02:52:25.819Z,2.20
2018-12-07T02:55:28.935Z,2.30
2018-12-07T02:58:32.054Z,2.30
2018-12-07T03:01:35.167Z,2.10
2018-12-07T03:04:38.330Z,1.83
2018-12-07T03:07:41.558Z,1.90
2018-12-07T03:10:44.690Z,1.87
2018-12-07T03:13:47.940Z,2.10
2018-12-07T03:16:51.108Z,2.00
2018-12-07T03:19:54.197Z,2.20
2018-12-07T03:22:57.421Z,1.90
2018-12-07T03:26:00.574Z,1.80
2018-12-07T03:29:03.838Z,1.80
2018-12-07T03:32:06.948Z,1.83
2018-12-07T03:35:10.157Z,2.00
2018-12-07T03:38:13.334Z,1.90
2018-12-07T03:41:16.495Z,1.80
2018-12-07T03:44:19.690Z,1.70
2018-12-07T03:47:22.811Z,1.80
2018-12-07T03:50:25.921Z,1.57
2018-12-07T03:53:29.062Z,1.50
2018-12-07T03:56:32.291Z,1.53
2018-12-07T03:59:35.416Z,1.50
2018-12-07T04:02:38.500Z,1.60
2018-12-07T04:05:41.689Z,1.70
2018-12-07T04:08:44.790Z,1.30
2018-12-07T04:11:48.080Z,1.50
2018-12-07T04:14:51.236Z,1.60
2018-12-07T04:17:54.337Z,1.40
2018-12-07T04:20:57.419Z,1.50
2018-12-07T04:24:00.506Z,1.33
2018-12-07T04:27:03.722Z,1.37
2018-12-07T04:30:20.742Z,1.57
2018-12-07T04:33:23.886Z,1.40
2018-12-07T04:36:27.135Z,1.40
2018-12-07T04:39:30.241Z,1.20
2018-12-07T04:42:33.387Z,1.40
2018-12-07T04:45:36.461Z,1.17
2018-12-07T04:48:39.633Z,1.27
2018-12-07T04:51:42.728Z,1.40
2018-12-07T04:54:45.996Z,1.30
2018-12-07T04:57:49.075Z,1.10
2018-12-07T05:00:52.178Z,1.30
2018-12-07T05:03:55.381Z,1.00
2018-12-07T05:06:58.481Z,1.10
2018-12-07T05:10:01.615Z,1.10
2018-12-07T05:13:04.832Z,1.10
2018-12-07T05:16:07.920Z,1.03
2018-12-07T05:19:10.998Z,1.00
2018-12-07T05:22:14.120Z,1.00
2018-12-07T05:25:17.295Z,1.10
2018-12-07T05:28:20.382Z,1.10
2018-12-07T05:31:23.613Z,1.00
2018-12-07T05:34:26.746Z,1.10
2018-12-07T05:37:29.865Z,1.10
2018-12-07T05:40:33.057Z,1.00
2018-12-07T05:43:42.579Z,0.90
2018-12-07T05:46:45.874Z,0.97
2018-12-07T05:49:49.056Z,0.90
2018-12-07T05:52:52.160Z,1.00
2018-12-07T05:55:55.332Z,1.00
2018-12-07T05:58:58.493Z,0.90
2018-12-07T06:02:01.992Z,1.00
2018-12-07T06:05:06.709Z,1.17
2018-12-07T06:08:09.834Z,1.20
2018-12-07T06:11:13.030Z,0.97
2018-12-07T06:14:16.138Z,0.97
2018-12-07T06:17:19.330Z,1.13
2018-12-07T06:20:22.539Z,1.00
2018-12-07T06:23:25.695Z,1.43
2018-12-07T06:26:28.815Z,1.10
2018-12-07T06:29:31.926Z,1.20
2018-12-07T06:32:36.329Z,3.13
2018-12-07T06:35:39.880Z,4.30
2018-12-07T06:38:43.070Z,6.03
2018-12-07T06:41:46.348Z,6.10
2018-12-07T06:44:49.634Z,5.63
2018-12-07T06:47:52.801Z,5.93
2018-12-07T06:50:55.985Z,5.40
2018-12-07T06:53:59.114Z,4.90
2018-12-07T06:57:02.259Z,4.57
2018-12-07T07:00:06.606Z,4.00
2018-12-07T07:03:09.800Z,4.67
2018-12-07T07:06:13.030Z,3.87
2018-12-07T07:09:16.155Z,3.83
2018-12-07T07:12:19.249Z,3.50
2018-12-07T07:15:22.477Z,3.80
2018-12-07T07:18:25.763Z,3.13
2018-12-07T07:21:29.000Z,3.67
2018-12-07T07:24:32.198Z,3.60
2018-12-07T07:27:35.507Z,3.30
2018-12-07T07:30:38.846Z,3.10
2018-12-07T07:33:42.002Z,3.90
2018-12-07T07:36:45.194Z,2.87
2018-12-07T07:39:50.053Z,2.90
2018-12-07T07:42:55.056Z,3.23
2018-12-07T07:45:59.527Z,2.90
2018-12-07T07:49:05.249Z,3.43
2018-12-07T07:52:08.377Z,2.67
2018-12-07T07:55:11.602Z,2.57
2018-12-07T07:58:14.746Z,2.83
2018-12-07T08:01:17.954Z,2.67
2018-12-07T08:04:21.135Z,2.67
2018-12-07T08:07:24.317Z,2.60
2018-12-07T08:10:27.429Z,2.97
2018-12-07T08:13:30.595Z,2.83
2018-12-07T08:16:33.799Z,2.90
2018-12-07T08:19:36.915Z,2.23
2018-12-07T08:22:40.236Z,2.50
2018-12-07T08:25:43.523Z,2.13
2018-12-07T08:28:46.672Z,2.43
2018-12-07T08:31:49.852Z,2.17
2018-12-07T08:34:53.062Z,2.30
2018-12-07T08:37:56.201Z,2.07
2018-12-07T08:40:59.338Z,2.13
2018-12-07T08:44:02.574Z,2.20
2018-12-07T08:47:05.777Z,1.70
2018-12-07T08:50:09.236Z,1.80
2018-12-07T08:53:12.404Z,1.70
2018-12-07T08:56:15.518Z,1.80
2018-12-07T08:59:18.608Z,1.80
2018-12-07T09:02:21.766Z,1.70
2018-12-07T09:05:24.846Z,1.90
2018-12-07T09:08:28.109Z,1.70
2018-12-07T09:11:31.298Z,1.87
2018-12-07T09:14:34.430Z,1.57
2018-12-07T09:17:37.558Z,1.50
2018-12-07T09:20:41.116Z,1.50
2018-12-07T09:23:49.577Z,1.60
2018-12-07T09:26:49.331Z,1.70
2018-12-07T09:29:52.522Z,1.50
2018-12-07T09:32:55.611Z,1.50
2018-12-07T09:35:58.711Z,1.60
2018-12-07T09:39:01.786Z,1.70
2018-12-07T09:42:04.978Z,1.60
2018-12-07T09:45:08.243Z,1.30
2018-12-07T09:48:11.355Z,1.80
2018-12-07T09:51:14.504Z,1.27
2018-12-07T09:54:17.650Z,1.47
2018-12-07T09:57:20.764Z,1.40
2018-12-07T10:00:23.898Z,1.30
2018-12-07T10:03:26.961Z,1.30
2018-12-07T10:06:30.085Z,1.23
2018-12-07T10:09:33.294Z,1.30
2018-12-07T10:12:36.519Z,1.40
2018-12-07T10:15:39.606Z,1.20
2018-12-07T10:18:42.691Z,1.27
2018-12-07T10:21:45.777Z,1.43
2018-12-07T10:24:48.888Z,1.30
2018-12-07T10:27:51.989Z,1.10
2018-12-07T10:30:55.080Z,1.27
2018-12-07T10:33:58.194Z,1.37
2018-12-07T10:37:01.424Z,1.40
2018-12-07T10:40:05.210Z,1.20
2018-12-07T10:43:08.319Z,1.20
2018-12-07T10:46:11.487Z,1.00
2018-12-07T10:49:14.617Z,1.27
2018-12-07T10:52:17.735Z,1.10
2018-12-07T10:55:20.863Z,1.17
2018-12-07T10:58:23.985Z,1.20
2018-12-07T11:01:32.697Z,1.43
2018-12-07T11:04:41.308Z,1.50
2018-12-07T11:07:49.919Z,1.17
2018-12-07T11:10:56.718Z,1.20
2018-12-07T11:14:05.260Z,1.67
2018-12-07T11:17:13.883Z,1.40
2018-12-07T11:21:26.206Z,1.33
2018-12-07T11:24:34.595Z,1.17
2018-12-07T11:27:43.137Z,1.50
2018-12-07T11:30:51.697Z,1.40
2018-12-07T11:34:01.701Z,1.37
2018-12-07T11:37:04.882Z,1.57
2018-12-07T11:40:08.506Z,1.37
2018-12-07T11:43:11.719Z,1.40
2018-12-07T11:46:14.884Z,1.33
2018-12-07T11:49:17.961Z,1.20
2018-12-07T11:52:21.127Z,1.47
2018-12-07T11:55:24.268Z,1.20
2018-12-07T11:58:27.361Z,1.30
2018-12-07T12:01:30.552Z,1.20
2018-12-07T12:04:33.710Z,1.20
2018-12-07T12:07:36.859Z,1.30
2018-12-07T12:10:40.038Z,1.27
2018-12-07T12:13:43.216Z,1.40
2018-12-07T12:16:46.419Z,1.17
2018-12-07T12:19:49.675Z,1.10
2018-12-07T12:22:53.946Z,1.20
2018-12-07T12:25:57.484Z,1.30
2018-12-07T12:29:00.715Z,1.20
2018-12-07T12:32:04.168Z,1.00
2018-12-07T12:35:08.039Z,1.10
2018-12-07T12:38:11.704Z,1.20
2018-12-07T12:41:15.042Z,1.53
2018-12-07T12:44:18.491Z,1.20
2018-12-07T12:47:21.746Z,1.60
2018-12-07T12:50:30.541Z,1.30
2018-12-07T12:53:33.885Z,1.20
2018-12-07T12:56:37.036Z,1.20
2018-12-07T12:59:40.937Z,1.40
2018-12-07T13:02:44.441Z,1.30
2018-12-07T13:05:49.162Z,1.20
2018-12-07T13:08:52.626Z,1.33
2018-12-07T13:11:56.120Z,1.33
2018-12-07T13:14:59.419Z,1.50
2018-12-07T13:18:02.703Z,1.60
2018-12-07T13:21:06.228Z,1.40
2018-12-07T13:24:09.534Z,1.60
2018-12-07T13:27:12.897Z,1.80
2018-12-07T13:30:16.243Z,1.50
2018-12-07T13:33:19.582Z,1.40
2018-12-07T13:36:22.975Z,1.40
2018-12-07T13:39:26.437Z,1.50
2018-12-07T13:42:29.882Z,1.67
2018-12-07T13:45:33.277Z,1.50
2018-12-07T13:48:37.062Z,1.67
2018-12-07T13:51:40.525Z,1.53
2018-12-07T13:54:44.543Z,1.60
2018-12-07T13:57:47.920Z,1.57
2018-12-07T14:00:51.803Z,1.77
2018-12-07T14:03:55.876Z,1.27
2018-12-07T14:06:59.997Z,1.53
2018-12-07T14:10:04.237Z,1.43
2018-12-07T14:13:07.739Z,1.40
2018-12-07T14:16:11.212Z,1.70
2018-12-07T14:19:14.668Z,1.60
2018-12-07T14:22:18.146Z,1.70
2018-12-07T14:25:21.516Z,1.67
2018-12-07T14:28:24.933Z,1.60
2018-12-07T14:31:28.520Z,1.83
2018-12-07T14:34:32.406Z,2.20
2018-12-07T14:37:35.737Z,2.07
2018-12-07T14:40:39.605Z,1.70
2018-12-07T14:43:43.291Z,2.00
2018-12-07T14:46:46.550Z,2.07
2018-12-07T14:49:49.948Z,1.77
2018-12-07T14:52:53.360Z,2.07
2018-12-07T14:55:56.679Z,1.63
2018-12-07T14:59:00.587Z,1.90
2018-12-07T15:02:04.176Z,2.10
2018-12-07T15:05:07.582Z,2.00
2018-12-07T15:08:10.956Z,1.80
2018-12-07T15:11:14.170Z,2.03
2018-12-07T15:14:17.428Z,2.10
2018-12-07T15:17:20.896Z,2.40
2018-12-07T15:20:24.162Z,2.10
2018-12-07T15:23:27.555Z,2.53
2018-12-07T15:26:30.814Z,2.00
2018-12-07T15:29:34.288Z,2.10
2018-12-07T15:32:38.058Z,2.00
2018-12-07T15:35:41.543Z,1.97
2018-12-07T15:38:44.940Z,2.20
2018-12-07T15:41:48.251Z,2.10
2018-12-07T15:44:51.616Z,2.23
2018-12-07T15:47:55.120Z,2.10
2018-12-07T15:50:58.568Z,2.20
2018-12-07T15:54:01.793Z,2.07
2018-12-07T15:57:05.584Z,1.90
2018-12-07T16:00:09.232Z,2.10
2018-12-07T16:03:12.510Z,2.00
2018-12-07T16:06:15.729Z,2.00
2018-12-07T16:09:18.960Z,2.10
2018-12-07T16:12:22.255Z,1.90
2018-12-07T16:15:25.656Z,2.27
2018-12-07T16:18:29.031Z,2.20
2018-12-07T16:21:32.550Z,2.03
2018-12-07T16:24:36.125Z,1.80
2018-12-07T16:27:39.494Z,2.10
2018-12-07T16:30:42.751Z,1.70
2018-12-07T16:33:46.107Z,2.13
2018-12-07T16:36:49.335Z,1.80
2018-12-07T16:39:52.519Z,1.90
2018-12-07T16:42:56.210Z,2.03
2018-12-07T16:45:59.427Z,1.70
2018-12-07T16:49:02.880Z,1.80
2018-12-07T16:52:06.423Z,1.90
2018-12-07T16:55:09.766Z,1.83
2018-12-07T16:58:13.179Z,1.70
2018-12-07T17:01:16.535Z,1.70
2018-12-07T17:04:19.795Z,1.80
2018-12-07T17:07:23.228Z,1.80
2018-12-07T17:10:26.852Z,1.53
2018-12-07T17:13:30.311Z,1.60
2018-12-07T17:16:33.830Z,1.90
2018-12-07T17:19:37.191Z,1.53
2018-12-07T17:22:40.495Z,1.70
2018-12-07T17:25:43.845Z,1.70
2018-12-07T17:28:47.342Z,1.90
2018-12-07T17:31:50.671Z,1.57
2018-12-07T17:34:54.086Z,1.80
2018-12-07T17:37:57.502Z,1.70
2018-12-07T17:41:01.061Z,1.47
2018-12-07T17:44:04.264Z,1.50
2018-12-07T17:47:07.437Z,1.67
2018-12-07T17:50:10.706Z,1.90
2018-12-07T17:53:14.136Z,1.77
2018-12-07T17:56:17.569Z,1.87
2018-12-07T17:59:20.893Z,1.63
2018-12-07T18:02:24.111Z,1.73
2018-12-07T18:05:27.236Z,1.53
2018-12-07T18:08:30.567Z,1.53
2018-12-07T18:11:33.780Z,1.60
2018-12-07T18:14:36.973Z,1.40
2018-12-07T18:17:40.065Z,1.50
2018-12-07T18:20:43.286Z,1.20
2018-12-07T18:23:46.526Z,1.80
2018-12-07T18:26:49.747Z,1.60
2018-12-07T18:29:53.275Z,1.40
2018-12-07T18:32:56.538Z,1.60
2018-12-07T18:35:59.905Z,1.30
2018-12-07T18:39:04.098Z,1.97
2018-12-07T18:42:07.365Z,1.47
2018-12-07T18:45:10.553Z,1.30
2018-12-07T18:48:13.988Z,1.43
2018-12-07T18:51:17.195Z,1.80
2018-12-07T18:54:20.332Z,1.40
2018-12-07T18:57:23.829Z,1.50
2018-12-07T19:00:27.098Z,1.87
2018-12-07T19:03:30.421Z,1.70
2018-12-07T19:06:34.095Z,1.47
2018-12-07T19:09:37.312Z,1.60
2018-12-07T19:12:40.461Z,1.40
2018-12-07T19:15:43.814Z,1.57
2018-12-07T19:18:47.036Z,1.43
2018-12-07T19:21:50.217Z,1.20
2018-12-07T19:24:53.402Z,1.27
2018-12-07T19:27:56.654Z,1.30
2018-12-07T19:30:59.980Z,1.60
2018-12-07T19:34:03.102Z,1.40
2018-12-07T19:37:06.513Z,1.20
2018-12-07T19:40:09.918Z,1.33
2018-12-07T19:43:13.218Z,1.40
2018-12-07T19:46:16.505Z,1.40
2018-12-07T19:49:19.871Z,1.33
2018-12-07T19:52:23.152Z,1.27
2018-12-07T19:55:26.274Z,1.23
2018-12-07T19:58:29.440Z,1.40
2018-12-07T20:01:32.893Z,1.10
2018-12-07T20:04:36.215Z,1.40
2018-12-07T20:07:39.700Z,1.27
2018-12-07T20:10:43.179Z,1.23
2018-12-07T20:13:46.425Z,1.27
2018-12-07T20:16:50.378Z,1.10
2018-12-07T20:19:53.683Z,1.00
2018-12-07T20:22:57.018Z,1.00
2018-12-07T20:26:00.741Z,1.10
2018-12-07T20:29:04.046Z,1.00
2018-12-07T20:32:07.356Z,1.00
2018-12-07T20:35:10.663Z,1.07
2018-12-07T20:38:14.154Z,1.10
2018-12-07T20:41:17.472Z,1.30
2018-12-07T20:44:20.633Z,1.23
2018-12-07T20:47:25.068Z,1.10
2018-12-07T20:50:28.847Z,1.57
2018-12-07T20:53:32.483Z,1.03
2018-12-07T20:56:35.941Z,1.20
2018-12-07T20:59:40.039Z,1.10
2018-12-07T21:02:43.431Z,1.30
2018-12-07T21:06:13.081Z,1.27
2018-12-07T21:09:31.244Z,1.10
2018-12-07T21:13:47.463Z,1.40
2018-12-07T21:17:26.611Z,1.30
2018-12-07T21:20:30.007Z,1.27
2018-12-07T21:23:33.631Z,1.00
2018-12-07T21:26:37.314Z,1.30
2018-12-07T21:29:40.706Z,1.00
2018-12-07T21:32:44.092Z,1.20
2018-12-07T21:36:03.106Z,1.03
2018-12-07T21:39:16.211Z,1.23
2018-12-07T21:42:22.666Z,1.10
2018-12-07T21:45:25.969Z,1.23
2018-12-07T21:48:30.403Z,1.13
2018-12-07T21:51:49.343Z,1.30
2018-12-07T21:54:53.045Z,1.20
2018-12-07T21:57:56.384Z,1.20
2018-12-07T22:00:59.658Z,1.40
2018-12-07T22:04:02.944Z,1.13
2018-12-07T22:07:06.541Z,1.20
2018-12-07T22:10:10.792Z,1.20
2018-12-07T22:13:16.420Z,1.40
2018-12-07T22:16:19.886Z,1.27
2018-12-07T22:19:23.102Z,1.27
2018-12-07T22:22:26.203Z,1.30
2018-12-07T22:25:29.566Z,1.30
2018-12-07T22:28:33.064Z,1.57
2018-12-07T22:31:36.489Z,1.30
2018-12-07T22:34:40.183Z,1.20
2018-12-07T22:37:43.581Z,1.13
2018-12-07T22:40:47.237Z,1.30
2018-12-07T22:43:51.172Z,1.50
2018-12-07T22:46:55.040Z,1.77
2018-12-07T22:50:01.697Z,1.57
2018-12-07T22:53:06.443Z,1.30
2018-12-07T22:56:14.438Z,1.47
2018-12-07T22:59:19.463Z,1.23
2018-12-07T23:02:26.672Z,1.47
2018-12-07T23:05:30.283Z,1.30
2018-12-07T23:08:33.995Z,1.10
2018-12-07T23:11:37.425Z,1.30
2018-12-07T23:14:40.689Z,1.47
2018-12-07T23:17:43.844Z,1.40
2018-12-07T23:20:47.069Z,1.40
2018-12-07T23:23:50.222Z,1.60
2018-12-07T23:26:53.805Z,1.43
2018-12-07T23:29:56.975Z,1.70
2018-12-07T23:33:00.061Z,1.60
2018-12-07T23:36:03.668Z,1.67
2018-12-07T23:39:07.138Z,1.47
2018-12-07T23:42:10.660Z,1.50
2018-12-07T23:45:13.915Z,1.50
2018-12-07T23:48:17.306Z,1.57
2018-12-07T23:51:20.474Z,1.43
2018-12-07T23:54:23.622Z,1.63
2018-12-07T23:57:26.825Z,1.57
